Time;durP1;ratioP1;P1;durP2;ratioP2;P2;SDS_P1;SDS_P2;PMS_P1;PMS_P2;Temp;Humidity;BMP_temperature;BMP_pressure;BME280_temperature;BME280_humidity;BME280_pressure;Samples;Min_cycle;Max_cycle;Signal;HPM_P1;HPM_P2
2022/09/07 00:00:37;;;;;;;4.90;1.33;;;14.10;99.90;;;13.05;82.85;101467.03;4959746;28;20042;-75
2022/09/07 00:03:04;;;;;;;7.22;1.27;;;14.10;99.90;;;13.03;82.88;101462.75;4974739;28;20513;-75
2022/09/07 00:05:31;;;;;;;7.70;1.52;;;14.10;99.90;;;12.98;82.97;101462.97;4974049;28;20038;-75
2022/09/07 00:07:58;;;;;;;6.63;1.50;;;14.00;99.90;;;12.90;83.34;101460.63;4962649;28;20579;-75
2022/09/07 00:10:25;;;;;;;3.30;1.48;;;13.90;99.90;;;12.82;83.81;101454.81;4975744;28;20053;-75
2022/09/07 00:12:52;;;;;;;5.82;1.58;;;13.90;99.90;;;12.76;84.08;101448.97;4944418;28;20031;-75
2022/09/07 00:15:18;;;;;;;7.60;1.50;;;13.80;99.90;;;12.69;84.18;101443.09;4975713;28;20487;-75
2022/09/07 00:17:44;;;;;;;6.50;1.60;;;13.70;99.90;;;12.63;85.01;101443.34;4961738;28;20089;-75
2022/09/07 00:20:11;;;;;;;9.93;1.67;;;13.70;99.90;;;12.61;85.11;101445.22;4974653;28;20032;-75
2022/09/07 00:22:37;;;;;;;5.43;1.70;;;13.70;99.90;;;12.57;84.99;101444.50;4972983;28;20038;-75
2022/09/07 00:25:04;;;;;;;8.98;1.60;;;13.60;99.90;;;12.54;85.56;101449.03;4975148;28;20084;-75
2022/09/07 00:27:31;;;;;;;10.52;1.58;;;13.60;99.90;;;12.52;85.07;101449.09;4988816;23;20043;-75
2022/09/07 00:29:57;;;;;;;5.47;1.30;;;13.60;99.90;;;12.47;85.56;101451.09;4959269;28;20107;-76
2022/09/07 00:32:22;;;;;;;3.35;1.30;;;13.50;99.90;;;12.43;85.62;101453.00;4942242;29;20115;-75
2022/09/07 00:34:50;;;;;;;6.05;1.50;;;13.20;99.90;;;12.37;86.33;101445.34;4942518;28;20063;-76
2022/09/07 00:37:19;;;;;;;13.07;1.58;;;13.40;99.90;;;12.34;86.66;101447.28;4950269;29;20038;-76
2022/09/07 00:39:45;;;;;;;10.73;2.00;;;13.40;99.90;;;12.28;87.21;101451.88;4936969;29;20031;-75
2022/09/07 00:42:10;;;;;;;7.65;1.63;;;13.40;99.90;;;12.25;87.51;101451.16;4944707;29;20376;-76
2022/09/07 00:44:42;;;;;;;6.75;1.73;;;13.40;99.90;;;12.30;86.55;101459.72;4952388;29;20031;-75
2022/09/07 00:47:28;;;;;;;5.07;1.50;;;13.40;99.90;;;12.29;87.01;101455.38;4966683;28;20062;-76
2022/09/07 00:50:01;;;;;;;6.43;2.10;;;13.30;99.90;;;12.24;87.07;101454.69;4967201;28;20031;-76
2022/09/07 00:52:30;;;;;;;9.02;1.63;;;13.40;99.90;;;12.23;87.43;101458.28;4949940;29;20512;-75
2022/09/07 00:55:05;;;;;;;9.63;1.80;;;13.30;99.90;;;12.23;87.28;101459.13;4951190;29;20134;-76
2022/09/07 00:57:32;;;;;;;5.63;1.75;;;13.40;99.90;;;12.25;86.96;101461.72;4934807;29;20059;-76
2022/09/07 00:59:58;;;;;;;4.68;1.70;;;13.30;99.90;;;12.27;86.10;101458.09;4936262;29;20044;-76
2022/09/07 01:02:25;;;;;;;4.65;1.90;;;13.30;99.90;;;12.25;86.16;101459.06;4943918;28;20038;-76
2022/09/07 01:05:02;;;;;;;6.35;1.70;;;13.30;99.90;;;12.20;86.56;101453.13;4952407;29;20035;-76
2022/09/07 01:07:28;;;;;;;3.38;1.58;;;13.30;99.90;;;12.20;86.68;101459.28;4935921;29;20122;-76
2022/09/07 01:09:55;;;;;;;9.60;1.70;;;13.30;99.90;;;12.18;86.54;101454.94;4949164;29;20118;-76
2022/09/07 01:12:21;;;;;;;6.15;1.67;;;13.30;99.90;;;12.13;86.94;101446.38;4948632;29;20071;-76
2022/09/07 01:14:51;;;;;;;8.20;1.80;;;13.20;99.90;;;12.09;87.38;101443.00;4957445;28;20416;-76
2022/09/07 01:17:26;;;;;;;8.90;1.70;;;13.20;99.90;;;12.02;87.74;101434.47;4966562;28;20066;-75
2022/09/07 01:20:26;;;;;;;8.68;2.20;;;13.10;99.90;;;11.98;87.76;101424.97;4944592;29;20035;-76
2022/09/07 01:23:30;;;;;;;6.43;2.03;;;13.10;99.90;;;11.92;88.28;101441.03;4943401;29;20038;-76
2022/09/07 01:26:11;;;;;;;6.85;2.08;;;13.10;99.90;;;11.92;87.83;101438.41;4944201;29;20039;-75
2022/09/07 01:28:37;;;;;;;9.88;2.20;;;13.00;99.90;;;11.90;87.39;101427.94;4946164;29;20039;-76
2022/09/07 01:31:31;;;;;;;5.45;2.17;;;13.00;99.90;;;11.93;87.51;101431.38;4935691;29;20113;-76
2022/09/07 01:34:24;;;;;;;6.53;2.40;;;13.00;99.90;;;11.90;87.39;101427.09;4948210;29;20469;-75
2022/09/07 01:37:01;;;;;;;6.20;1.88;;;13.00;99.90;;;11.94;86.83;101430.44;4951188;29;20102;-75
2022/09/07 01:39:45;;;;;;;9.15;2.42;;;13.00;99.90;;;11.92;86.56;101421.72;4950461;29;20066;-76
2022/09/07 01:42:15;;;;;;;7.78;2.35;;;13.00;99.90;;;11.88;86.62;101415.72;4950463;29;20055;-75
2022/09/07 01:44:48;;;;;;;6.95;2.08;;;13.00;99.90;;;11.85;87.09;101415.81;4950055;29;20026;-76
2022/09/07 01:47:53;;;;;;;5.68;2.03;;;13.00;99.90;;;11.90;86.30;101414.75;4950318;28;20401;-76
2022/09/07 01:50:39;;;;;;;5.63;2.20;;;13.00;99.90;;;11.89;86.61;101420.06;4928400;29;20043;-75
2022/09/07 01:53:20;;;;;;;3.28;1.67;;;13.00;99.90;;;11.92;86.12;101430.50;4943918;28;20491;-75
2022/09/07 01:55:58;;;;;;;8.30;2.10;;;13.00;99.90;;;11.96;85.95;101429.44;4943915;29;20076;-75
2022/09/07 01:58:28;;;;;;;4.38;2.28;;;13.00;99.90;;;11.97;85.71;101431.19;4933267;29;20027;-75
2022/09/07 02:01:31;;;;;;;7.75;1.92;;;13.00;99.90;;;11.98;85.58;101414.41;4967605;28;20051;-75
2022/09/07 02:04:13;;;;;;;9.32;2.10;;;13.00;99.90;;;11.93;86.22;101395.28;4943749;29;20040;-75
2022/09/07 02:06:47;;;;;;;11.73;2.30;;;13.00;99.90;;;11.93;85.97;101394.44;4949977;29;20035;-76
2022/09/07 02:09:34;;;;;;;6.13;2.05;;;13.00;99.90;;;11.93;85.86;101405.84;4951017;29;20031;-75
2022/09/07 02:12:05;;;;;;;;;;;13.10;99.90;;;11.84;85.67;101407.03;4950342;29;20043;-76
2022/09/07 02:14:38;;;;;;;5.15;2.20;;;13.00;99.90;;;11.88;86.31;101402.53;4941739;29;19941;-75
2022/09/07 02:17:35;;;;;;;8.90;2.25;;;13.00;99.90;;;11.95;85.48;101405.78;4944329;29;20035;-75
2022/09/07 02:20:19;;;;;;;11.00;2.13;;;13.00;99.90;;;11.94;85.34;101407.53;4961621;28;20031;-76
2022/09/07 02:22:53;;;;;;;7.70;2.08;;;13.10;99.90;;;11.99;85.25;101412.66;4941405;29;20098;-75
2022/09/07 02:25:30;;;;;;;11.07;2.25;;;13.00;99.90;;;12.01;84.89;101411.66;4950034;29;20462;-76
2022/09/07 02:28:13;;;;;;;9.45;2.33;;;13.10;99.90;;;12.00;84.99;101415.19;4949008;29;20373;-75
2022/09/07 02:30:39;;;;;;;11.38;2.60;;;13.10;99.90;;;11.99;85.33;101407.38;4927395;29;20464;-75
2022/09/07 02:33:05;;;;;;;9.13;2.33;;;13.00;99.90;;;11.95;85.30;101404.00;4946875;29;20028;-76
2022/09/07 02:35:32;;;;;;;8.18;2.30;;;13.10;99.90;;;11.96;85.91;101405.69;4950212;29;20122;-76
2022/09/07 02:38:03;;;;;;;7.45;2.25;;;13.10;99.90;;;11.97;85.43;101403.94;4949084;29;20038;-75
2022/09/07 02:40:32;;;;;;;6.95;2.53;;;13.10;99.90;;;11.93;85.59;101400.56;4949657;28;20035;-76
2022/09/07 02:43:06;;;;;;;8.40;2.20;;;13.10;99.90;;;11.93;86.02;101404.97;4944933;28;20091;-75
2022/09/07 02:46:07;;;;;;;10.55;2.25;;;13.30;99.90;;;11.86;86.57;101412.25;4949112;29;20059;-76
2022/09/07 02:48:51;;;;;;;7.97;2.20;;;13.00;99.90;;;11.88;86.50;101407.81;4954375;28;20070;-76
2022/09/07 02:52:10;;;;;;;9.45;2.22;;;13.00;99.90;;;11.84;86.45;101414.97;4945402;29;20197;-75
2022/09/07 02:55:08;;;;;;;;;;;13.00;99.90;;;11.77;86.88;101415.25;4949894;29;20094;-76
2022/09/07 02:58:13;;;;;;;9.65;2.13;;;12.90;99.90;;;11.76;87.45;101408.28;4942033;28;20610;-76
2022/09/07 03:01:12;;;;;;;7.32;2.25;;;12.90;99.90;;;11.78;86.46;101422.25;4941454;29;20042;-76
2022/09/07 03:03:57;;;;;;;5.53;2.42;;;12.90;99.90;;;11.79;87.17;101413.41;4948952;28;20039;-76
2022/09/07 03:06:31;;;;;;;12.50;2.38;;;12.90;99.90;;;11.80;86.75;101417.78;4943514;29;20102;-75
2022/09/07 03:09:03;;;;;;;12.20;2.60;;;12.90;99.90;;;11.78;86.51;101403.78;4948097;29;20098;-76
2022/09/07 03:11:29;;;;;;;9.30;2.60;;;12.90;99.90;;;11.78;86.36;101402.00;4940485;29;20041;-76
2022/09/07 03:14:18;;;;;;;3.70;2.08;;;12.90;99.90;;;11.76;86.50;101400.34;4948220;28;20514;-75
2022/09/07 03:16:48;;;;;;;6.72;2.35;;;12.90;99.90;;;11.70;87.12;101397.06;4925765;29;20078;-75
2022/09/07 03:19:14;;;;;;;7.57;2.40;;;12.90;99.90;;;11.72;86.85;101396.97;4948928;29;20039;-76
2022/09/07 03:21:40;;;;;;;3.33;2.03;;;12.90;99.90;;;11.78;86.79;101395.88;4948041;29;20119;-76
2022/09/07 03:24:06;;;;;;;8.18;2.20;;;12.90;99.90;;;11.75;86.87;101396.00;4941719;28;20106;-76
2022/09/07 03:26:35;;;;;;;7.25;2.28;;;12.90;99.90;;;11.79;86.88;101393.19;4944100;29;20066;-76
2022/09/07 03:29:01;;;;;;;6.50;2.13;;;12.90;99.90;;;11.81;86.43;101398.38;4948481;29;20460;-76
2022/09/07 03:31:26;;;;;;;6.90;2.42;;;12.90;99.90;;;11.84;86.87;101395.63;4949984;28;20119;-76
2022/09/07 03:33:53;;;;;;;5.72;2.33;;;12.90;99.90;;;11.79;86.20;101385.28;4940885;28;21190;-76
2022/09/07 03:36:19;;;;;;;11.48;2.00;;;12.90;99.90;;;11.79;86.82;101389.66;4944641;29;20032;-75
2022/09/07 03:38:45;;;;;;;7.97;2.10;;;12.90;99.90;;;11.83;87.00;101391.25;4944975;28;20065;-76
2022/09/07 03:41:11;;;;;;;10.15;1.92;;;12.90;99.90;;;11.82;86.80;101382.50;4943163;29;20064;-76
2022/09/07 03:43:37;;;;;;;5.28;2.15;;;12.90;99.90;;;11.80;86.86;101373.78;4963717;28;20090;-75
2022/09/07 03:46:05;;;;;;;6.07;2.13;;;12.90;99.90;;;11.80;87.21;101362.38;4940944;28;20454;-76
2022/09/07 03:48:33;;;;;;;5.80;2.30;;;12.90;99.90;;;11.73;87.63;101364.41;4930894;29;20043;-76
2022/09/07 03:51:03;;;;;;;11.65;1.88;;;12.90;99.90;;;11.68;88.12;101351.41;4931696;29;20085;-76
2022/09/07 03:53:34;;;;;;;5.93;2.10;;;12.80;99.90;;;11.72;87.66;101354.75;4949364;29;20079;-76
2022/09/07 03:56:07;;;;;;;5.28;2.00;;;12.90;99.90;;;11.69;87.50;101347.84;4931929;29;20612;-76
2022/09/07 03:58:36;;;;;;;7.65;2.10;;;12.90;99.90;;;11.68;87.32;101346.16;4932885;29;20070;-75
2022/09/07 04:01:09;;;;;;;6.60;2.38;;;12.90;99.90;;;11.74;87.59;101344.16;4946046;29;20066;-76
2022/09/07 04:03:35;;;;;;;12.70;2.50;;;12.80;99.90;;;11.70;87.30;101341.66;4946039;29;20521;-76
2022/09/07 04:06:02;;;;;;;5.72;2.40;;;12.80;99.90;;;11.75;87.47;101338.84;4946581;29;20052;-75
2022/09/07 04:08:30;;;;;;;4.90;2.30;;;12.90;99.90;;;11.79;87.01;101339.53;4925900;29;20075;-76
2022/09/07 04:11:02;;;;;;;6.28;2.42;;;12.90;99.90;;;11.85;86.60;101334.84;4950556;28;20031;-75
2022/09/07 04:13:30;;;;;;;12.45;1.90;;;13.00;99.90;;;11.83;86.08;101334.06;4951169;29;20863;-75
2022/09/07 04:15:58;;;;;;;8.00;2.50;;;13.00;99.90;;;11.90;85.93;101324.16;4949468;29;20044;-76
2022/09/07 04:18:24;;;;;;;9.77;2.38;;;13.00;99.90;;;11.92;85.99;101324.06;4951019;29;20109;-75
2022/09/07 04:20:51;;;;;;;11.90;2.50;;;13.00;99.90;;;11.97;85.14;101320.34;4952983;29;20031;-76
2022/09/07 04:23:19;;;;;;;4.97;2.35;;;13.10;99.90;;;11.95;84.65;101316.91;4944495;29;20027;-75
2022/09/07 04:25:50;;;;;;;5.28;2.35;;;13.10;99.90;;;11.99;84.95;101315.00;4963087;28;21124;-76
2022/09/07 04:28:18;;;;;;;16.33;2.60;;;13.00;99.90;;;11.93;85.09;101316.09;4937388;29;20027;-76
2022/09/07 04:30:44;;;;;;;9.57;2.30;;;13.10;99.90;;;11.99;84.25;101307.09;4951571;29;20567;-76
2022/09/07 04:33:10;;;;;;;8.23;2.40;;;13.10;99.90;;;12.05;84.40;101315.59;4951603;29;20079;-76
2022/09/07 04:35:38;;;;;;;4.78;1.95;;;13.10;99.90;;;12.09;83.55;101317.16;4950256;29;20035;-76
2022/09/07 04:38:05;;;;;;;10.68;2.65;;;13.20;99.90;;;12.14;83.42;101321.38;4952830;29;20035;-75
2022/09/07 04:40:32;;;;;;;6.32;2.33;;;13.20;99.90;;;12.18;83.37;101329.13;4952339;29;20032;-76
2022/09/07 04:42:58;;;;;;;8.95;2.38;;;13.30;99.90;;;12.27;83.10;101330.50;4944242;28;20216;-76
2022/09/07 04:45:24;;;;;;;6.82;2.08;;;13.30;99.90;;;12.27;83.42;101338.41;4942779;29;20027;-76
2022/09/07 04:47:50;;;;;;;9.00;2.25;;;13.30;99.90;;;12.36;82.29;101343.28;4946239;28;20027;-76
2022/09/07 04:50:17;;;;;;;6.90;2.28;;;13.40;99.90;;;12.42;82.33;101347.41;4951913;29;20562;-76
2022/09/07 04:52:43;;;;;;;5.90;2.65;;;13.40;99.90;;;12.50;81.79;101359.38;4944275;29;20044;-75
2022/09/07 04:55:11;;;;;;;10.15;2.40;;;13.50;99.90;;;12.52;81.96;101354.84;4949451;29;20038;-75
2022/09/07 04:57:37;;;;;;;7.65;2.67;;;13.50;99.90;;;12.60;81.57;101358.97;4947883;29;20043;-75
2022/09/07 05:00:08;;;;;;;8.25;2.10;;;13.50;99.90;;;12.52;81.94;101356.66;4952401;29;20035;-75
2022/09/07 05:02:34;;;;;;;7.00;2.53;;;13.50;99.90;;;12.72;81.26;101353.09;4952240;28;20551;-75
2022/09/07 05:05:03;;;;;;;7.10;2.50;;;13.60;99.90;;;12.79;81.23;101348.44;4945617;28;20039;-76
2022/09/07 05:07:29;;;;;;;5.05;2.10;;;13.70;99.90;;;12.89;80.53;101350.56;4945453;28;20038;-76
2022/09/07 05:09:55;;;;;;;9.25;2.63;;;13.70;99.90;;;12.89;80.89;101341.75;4949642;29;20497;-76
2022/09/07 05:12:21;;;;;;;12.63;3.50;;;13.80;99.90;;;12.90;81.04;101351.41;4949651;29;20447;-75
2022/09/07 05:14:47;;;;;;;8.98;2.90;;;13.80;99.90;;;12.98;80.78;101344.00;4946292;29;20125;-75
2022/09/07 05:17:13;;;;;;;4.68;2.33;;;13.90;99.90;;;13.03;80.51;101349.06;4944782;29;20319;-76
2022/09/07 05:19:38;;;;;;;9.00;2.47;;;14.00;99.90;;;13.34;80.27;101346.69;4943977;28;20047;-76
2022/09/07 05:22:04;;;;;;;8.20;2.42;;;14.30;99.90;;;15.13;75.15;101359.53;4944110;29;20059;-75
2022/09/07 05:24:30;;;;;;;7.25;2.10;;;15.10;99.90;;;17.40;66.58;101352.97;4935043;29;20671;-76
2022/09/07 05:26:58;;;;;;;6.35;2.00;;;16.00;99.90;;;18.84;61.10;101352.16;4948319;29;20020;-75
2022/09/07 05:29:24;;;;;;;15.88;2.22;;;16.80;99.90;;;19.27;58.68;101346.38;4944562;28;20046;-76
2022/09/07 05:31:50;;;;;;;6.95;2.25;;;17.10;99.90;;;18.02;61.15;101335.59;4944978;29;20035;-76
2022/09/07 05:34:16;;;;;;;9.68;2.30;;;17.20;99.90;;;17.30;62.75;101330.59;4951346;29;20039;-76
2022/09/07 05:36:42;;;;;;;8.70;2.40;;;17.00;99.90;;;16.63;64.92;101327.75;4949074;29;20038;-76
2022/09/07 05:39:10;;;;;;;5.82;2.20;;;16.90;99.90;;;16.24;66.16;101325.72;4949406;29;20114;-76
2022/09/07 05:41:36;;;;;;;10.50;1.95;;;16.70;99.90;;;16.04;67.24;101321.63;4942996;29;20095;-76
2022/09/07 05:44:02;;;;;;;6.25;2.08;;;16.60;99.90;;;15.98;67.87;101317.53;4943073;28;20508;-76
2022/09/07 05:46:28;;;;;;;;;;;16.50;99.90;;;16.11;67.78;101321.19;4950272;29;20552;-76
2022/09/07 05:48:54;;;;;;;4.43;2.13;;;16.40;99.90;;;16.28;67.31;101322.78;4945193;29;19919;-77
2022/09/07 05:51:19;;;;;;;5.38;2.15;;;16.60;99.90;;;16.17;67.27;101314.63;4949814;29;20030;-76
2022/09/07 05:53:54;;;;;;;5.55;2.35;;;16.60;99.90;;;16.18;67.29;101316.34;4949356;29;20063;-76
2022/09/07 05:56:20;;;;;;;10.70;2.10;;;16.60;99.90;;;16.25;66.59;101312.34;4934601;29;20467;-76
2022/09/07 05:58:48;;;;;;;8.73;2.30;;;16.70;99.90;;;16.44;66.33;101314.75;4943728;28;20076;-75
2022/09/07 06:01:15;;;;;;;9.15;2.03;;;16.70;99.90;;;16.35;66.50;101317.97;4950353;29;20059;-76
2022/09/07 06:03:41;;;;;;;9.77;2.40;;;16.80;99.90;;;16.35;66.18;101321.47;4948027;29;20031;-76
2022/09/07 06:06:10;;;;;;;9.50;2.53;;;16.80;99.90;;;16.22;66.44;101327.63;4950216;29;20023;-76
2022/09/07 06:08:39;;;;;;;8.85;2.45;;;16.90;99.90;;;16.76;65.40;101334.00;4947505;29;20098;-75
2022/09/07 06:11:10;;;;;;;10.07;2.22;;;17.00;99.90;;;17.01;64.54;101335.97;4934681;29;20027;-76
2022/09/07 06:13:37;;;;;;;6.88;2.47;;;17.20;99.90;;;17.00;64.47;101330.78;4949410;29;20164;-76
2022/09/07 06:16:05;;;;;;;7.97;2.20;;;17.40;99.90;;;17.13;64.19;101322.88;4950044;29;20058;-76
2022/09/07 06:18:40;;;;;;;11.63;2.42;;;17.50;99.90;;;17.12;64.26;101324.66;4948823;29;20043;-76
2022/09/07 06:21:09;;;;;;;6.72;2.15;;;17.60;99.90;;;17.38;63.62;101320.28;4932909;29;20035;-75
2022/09/07 06:23:38;;;;;;;5.45;2.35;;;17.70;99.90;;;17.64;63.20;101328.34;4929028;29;20038;-75
2022/09/07 06:26:05;;;;;;;8.13;2.00;;;17.90;99.90;;;17.75;61.98;101332.97;4950815;29;20041;-75
2022/09/07 06:28:40;;;;;;;12.55;2.25;;;18.00;99.90;;;18.05;60.63;101330.06;4933626;29;20031;-76
2022/09/07 06:31:13;;;;;;;7.07;2.40;;;18.30;99.90;;;18.53;60.50;101334.75;4934784;29;20500;-75
2022/09/07 06:33:41;;;;;;;9.00;2.53;;;18.50;99.90;;;18.64;59.62;101327.72;4948305;28;20138;-76
2022/09/07 06:36:15;;;;;;;10.35;2.50;;;18.70;99.90;;;18.84;59.04;101325.47;4970067;23;20058;-76
2022/09/07 06:38:42;;;;;;;8.93;2.47;;;18.90;99.90;;;19.11;58.58;101325.25;4947403;28;20085;-76
2022/09/07 06:41:14;;;;;;;8.10;2.55;;;19.20;99.90;;;19.79;56.81;101336.31;4960453;28;20029;-76
2022/09/07 06:43:40;;;;;;;6.40;2.15;;;19.40;99.90;;;19.68;56.53;101329.06;4951990;28;20029;-77
2022/09/07 06:46:06;;;;;;;8.50;2.13;;;19.60;99.90;;;20.01;56.14;101330.16;4953472;28;20080;-76
2022/09/07 06:48:33;;;;;;;6.65;2.47;;;19.80;99.90;;;20.71;54.50;101344.38;4943757;29;20465;-77
2022/09/07 06:51:10;;;;;;;7.97;2.90;;;20.30;99.90;;;21.70;51.97;101338.06;4943925;29;20120;-76
2022/09/07 06:53:39;;;;;;;12.27;2.50;;;21.00;99.90;;;22.67;50.18;101330.63;4942448;29;20050;-76
2022/09/07 06:56:08;;;;;;;11.98;2.55;;;21.80;99.90;;;23.44;48.60;101331.81;4948503;28;20042;-77
2022/09/07 06:58:34;;;;;;;10.70;2.47;;;22.60;99.20;;;24.42;46.88;101332.53;4942276;29;20031;-77
2022/09/07 07:01:32;;;;;;;9.13;2.38;;;23.20;97.20;;;24.20;45.71;101324.81;4960107;28;20035;-76
2022/09/07 07:04:01;;;;;;;15.02;2.58;;;23.60;96.80;;;24.45;46.42;101336.78;4940844;29;20575;-76
2022/09/07 07:06:37;;;;;;;10.48;2.70;;;23.80;95.90;;;23.89;46.90;101336.63;4941769;28;20058;-77
2022/09/07 07:09:07;;;;;;;;;;;23.90;96.50;;;22.97;47.84;101339.63;4941034;29;20489;-76
2022/09/07 07:11:35;;;;;;;9.88;2.40;;;23.40;95.70;;;23.37;48.04;101352.19;4940288;29;19917;-76
2022/09/07 07:14:02;;;;;;;16.92;2.40;;;23.50;95.60;;;23.40;48.16;101353.72;4943205;29;20027;-77
2022/09/07 07:16:28;;;;;;;8.38;2.58;;;23.10;95.40;;;22.14;50.06;101352.22;4944151;29;20031;-76
2022/09/07 07:18:55;;;;;;;10.05;3.00;;;22.80;95.50;;;22.45;49.39;101355.81;4939539;29;20139;-76
2022/09/07 07:21:21;;;;;;;6.38;2.30;;;22.90;96.10;;;22.90;49.44;101363.50;4959276;28;20030;-76
2022/09/07 07:23:52;;;;;;;11.55;2.30;;;23.30;96.00;;;23.64;47.29;101366.75;4944312;29;20035;-76
2022/09/07 07:26:22;;;;;;;7.88;2.58;;;23.70;94.80;;;23.60;47.44;101362.66;4943027;29;20051;-76
2022/09/07 07:28:53;;;;;;;7.25;2.53;;;24.00;94.80;;;23.90;46.92;101369.75;4942083;29;20027;-76
2022/09/07 07:31:25;;;;;;;5.57;2.47;;;23.90;94.80;;;23.35;47.96;101364.91;4939773;29;20034;-77
2022/09/07 07:33:52;;;;;;;13.93;2.55;;;23.90;95.20;;;23.47;48.05;101346.81;4947738;29;20024;-76
2022/09/07 07:36:22;;;;;;;9.63;2.97;;;23.90;95.50;;;23.66;47.84;101356.72;4926834;29;20039;-76
2022/09/07 07:38:51;;;;;;;8.30;2.08;;;24.00;95.80;;;23.54;48.84;101362.25;4925317;29;20115;-76
2022/09/07 07:41:19;;;;;;;8.95;2.67;;;23.90;96.30;;;23.36;49.89;101361.22;4941418;29;20508;-76
2022/09/07 07:43:46;;;;;;;7.40;2.05;;;23.60;96.00;;;22.78;50.37;101355.66;4931560;29;20508;-77
2022/09/07 07:46:15;;;;;;;12.40;2.67;;;23.30;96.10;;;22.29;51.43;101360.81;4942156;29;20044;-77
2022/09/07 07:48:41;;;;;;;6.82;2.03;;;23.00;96.70;;;22.05;52.09;101356.53;4941906;29;20067;-76
2022/09/07 07:51:13;;;;;;;9.85;2.28;;;22.80;96.90;;;22.13;52.10;101351.34;4947215;29;20024;-76
2022/09/07 07:53:40;;;;;;;5.07;2.40;;;23.10;97.60;;;23.07;50.80;101367.38;4940078;29;20432;-77
2022/09/07 07:56:09;;;;;;;5.90;2.22;;;23.20;96.60;;;23.08;50.19;101358.34;4924579;29;20440;-77
2022/09/07 07:58:37;;;;;;;7.43;2.33;;;23.60;95.90;;;23.21;49.36;101349.19;4949456;29;20050;-77
2022/09/07 08:01:21;;;;;;;9.30;2.30;;;24.00;95.90;;;23.74;48.38;101359.56;4942466;29;20063;-77
2022/09/07 08:03:47;;;;;;;12.73;2.35;;;24.10;95.70;;;23.50;49.35;101360.81;4925242;29;20027;-77
2022/09/07 08:06:17;;;;;;;10.82;2.60;;;24.20;95.50;;;23.48;49.03;101368.16;4940357;29;20065;-76
2022/09/07 08:08:44;;;;;;;5.13;1.88;;;24.10;95.70;;;23.18;49.35;101362.91;4948857;29;20466;-76
2022/09/07 08:11:16;;;;;;;10.13;2.35;;;23.80;95.30;;;22.88;50.14;101354.72;4941061;29;20119;-76
2022/09/07 08:13:43;;;;;;;6.82;1.85;;;23.50;95.10;;;22.21;50.70;101345.34;4943509;29;20163;-77
2022/09/07 08:16:10;;;;;;;9.15;2.22;;;22.80;95.60;;;21.55;51.92;101360.78;4940853;29;20038;-76
2022/09/07 08:18:37;;;;;;;12.32;2.50;;;22.60;96.70;;;21.46;52.36;101351.69;4940896;29;20046;-76
2022/09/07 08:21:07;;;;;;;8.88;2.50;;;22.00;96.90;;;20.74;53.69;101349.50;4942210;29;20031;-76
2022/09/07 08:23:33;;;;;;;8.13;2.35;;;21.80;97.20;;;20.91;53.35;101346.31;4943082;29;20043;-76
2022/09/07 08:25:59;;;;;;;16.00;2.83;;;21.70;97.50;;;20.83;53.43;101336.22;4941470;29;20034;-77
2022/09/07 08:28:28;;;;;;;10.13;2.28;;;21.60;97.90;;;20.81;54.17;101331.97;4939100;29;20536;-76
2022/09/07 08:30:54;;;;;;;10.27;2.72;;;21.50;97.20;;;20.83;52.89;101330.84;4939016;29;20054;-77
2022/09/07 08:33:20;;;;;;;9.23;2.78;;;21.60;97.90;;;20.98;53.58;101334.13;4927797;29;20038;-76
2022/09/07 08:36:03;;;;;;;22.13;11.07;;;21.60;97.40;;;20.95;52.65;101329.03;4925217;29;20027;-76
2022/09/07 08:38:31;;;;;;;6.75;2.60;;;21.50;97.70;;;20.55;53.60;101320.63;4962740;28;20497;-77
2022/09/07 08:40:58;;;;;;;9.07;4.10;;;21.50;98.00;;;20.83;53.83;101319.31;4946733;29;20527;-77
2022/09/07 08:43:51;;;;;;;3.70;2.45;;;21.40;97.60;;;20.54;54.06;101317.13;4940269;29;20473;-77
2022/09/07 08:46:25;;;;;;;7.13;2.38;;;21.30;98.10;;;20.41;54.12;101319.03;4945336;28;20499;-77
2022/09/07 08:48:51;;;;;;;6.05;2.45;;;21.30;98.80;;;20.47;55.42;101330.13;4926723;29;20497;-77
2022/09/07 08:51:57;;;;;;;7.38;2.60;;;21.20;98.70;;;20.37;54.24;101326.47;4947044;28;20032;-77
2022/09/07 08:54:23;;;;;;;7.25;2.70;;;21.10;98.10;;;20.12;55.15;101321.31;4941153;28;20039;-77
2022/09/07 08:56:53;;;;;;;10.50;2.78;;;21.10;98.20;;;20.09;54.81;101317.06;4940955;28;20038;-77
2022/09/07 08:59:39;;;;;;;12.30;4.43;;;21.00;98.30;;;20.16;54.68;101317.44;4944882;29;20035;-76
2022/09/07 09:02:14;;;;;;;14.18;4.13;;;20.90;99.30;;;20.13;55.70;101313.19;4944623;28;20496;-76
2022/09/07 09:04:43;;;;;;;38.90;17.55;;;20.90;98.50;;;20.22;55.20;101323.16;4943256;29;20038;-76
2022/09/07 09:07:55;;;;;;;7.30;2.90;;;20.90;98.20;;;19.98;54.57;101304.53;4946365;29;20373;-76
2022/09/07 09:11:00;;;;;;;12.32;3.00;;;21.00;98.20;;;20.23;54.47;101313.31;4946885;29;20031;-77
2022/09/07 09:14:14;;;;;;;10.20;2.90;;;21.10;98.50;;;20.40;54.22;101312.00;4943891;29;20046;-76
2022/09/07 09:17:07;;;;;;;23.27;3.47;;;21.20;98.90;;;20.53;54.38;101311.88;4958758;28;20031;-77
2022/09/07 09:20:18;;;;;;;14.82;3.10;;;21.20;98.40;;;20.67;53.46;101309.84;4935636;29;20141;-77
2022/09/07 09:22:44;;;;;;;12.75;3.70;;;21.30;97.50;;;20.62;53.64;101309.34;4946658;29;20028;-76
2022/09/07 09:25:32;;;;;;;8.30;2.88;;;21.40;98.20;;;20.81;54.17;101311.38;4943148;29;20031;-76
2022/09/07 09:28:02;;;;;;;7.22;3.13;;;21.60;98.80;;;21.18;53.14;101315.59;4942439;29;20110;-76
2022/09/07 09:30:32;;;;;;;13.32;3.13;;;21.70;98.30;;;21.22;53.14;101309.00;4934670;29;20116;-76
2022/09/07 09:33:24;;;;;;;9.20;3.15;;;21.70;97.40;;;21.05;52.70;101311.22;4943814;29;20060;-77
2022/09/07 09:36:04;;;;;;;7.95;3.28;;;21.80;97.30;;;21.14;52.73;101314.97;4945153;29;20586;-76
2022/09/07 09:38:39;;;;;;;7.90;3.15;;;22.00;97.90;;;21.34;52.72;101316.03;4942116;29;20454;-76
2022/09/07 09:41:13;;;;;;;14.90;3.70;;;22.00;98.10;;;21.55;52.88;101308.03;4940257;29;20047;-76
2022/09/07 09:43:54;;;;;;;18.23;10.00;;;22.10;97.50;;;21.59;52.89;101298.78;4949884;28;20027;-76
2022/09/07 09:46:30;;;;;;;14.98;3.90;;;22.30;97.80;;;21.82;52.13;101298.66;4946185;29;20091;-77
2022/09/07 09:49:26;;;;;;;12.45;3.95;;;22.40;96.50;;;21.62;51.40;101293.16;4944137;29;20039;-77
2022/09/07 09:51:56;;;;;;;10.23;3.13;;;22.30;96.40;;;21.40;52.28;101286.03;4950665;28;20047;-77
2022/09/07 09:54:38;;;;;;;10.90;3.55;;;22.30;97.20;;;21.41;52.32;101281.53;4941233;29;20040;-76
2022/09/07 09:57:16;;;;;;;9.73;3.53;;;22.20;97.40;;;21.54;52.48;101284.91;4942102;28;20043;-76
2022/09/07 10:00:02;;;;;;;8.18;3.10;;;22.20;97.40;;;21.53;52.53;101283.19;4942301;28;20046;-76
2022/09/07 10:02:32;;;;;;;11.20;3.35;;;22.30;97.60;;;21.65;52.50;101287.53;4932749;28;20126;-76
2022/09/07 10:05:18;;;;;;;10.90;3.30;;;22.30;97.00;;;21.66;52.06;101283.03;4942279;28;20081;-76
2022/09/07 10:07:51;;;;;;;12.43;3.80;;;22.20;96.60;;;21.47;52.06;101275.72;4939353;28;20089;-76
2022/09/07 10:10:20;;;;;;;8.75;3.20;;;22.10;96.80;;;21.18;52.60;101262.88;4946131;28;20715;-76
2022/09/07 10:12:52;;;;;;;9.88;3.72;;;22.10;96.90;;;21.28;52.61;101260.28;4940161;28;20036;-77
2022/09/07 10:15:40;;;;;;;9.80;3.40;;;22.00;96.80;;;21.22;52.47;101260.78;4939969;28;20039;-76
2022/09/07 10:18:17;;;;;;;12.20;3.50;;;22.10;97.60;;;21.24;52.61;101251.66;4945227;28;20074;-77
2022/09/07 10:20:46;;;;;;;18.52;3.75;;;22.00;97.50;;;21.23;53.26;101252.66;4960412;28;20040;-76
2022/09/07 10:23:29;;;;;;;11.13;3.50;;;22.00;97.70;;;21.35;53.22;101252.59;4938753;28;20034;-76
2022/09/07 10:25:55;;;;;;;12.20;3.85;;;22.10;98.00;;;21.37;53.81;101256.00;4941879;28;20039;-76
2022/09/07 10:28:24;;;;;;;8.30;3.83;;;22.10;97.40;;;21.23;53.21;101249.09;4947805;28;20538;-77
2022/09/07 10:31:31;;;;;;;9.45;3.13;;;22.20;97.40;;;21.53;52.38;101248.38;4956558;28;20103;-76
2022/09/07 10:34:34;;;;;;;9.90;3.50;;;22.20;98.10;;;21.65;52.70;101243.81;4938682;28;20063;-76
2022/09/07 10:37:24;;;;;;;7.15;3.45;;;22.30;96.90;;;21.58;52.13;101242.66;4935115;28;20035;-77